Aérodrome :
LOGIN :

S'inscrire | Disclaimer

   EN    FR    IT 

 










Légende :    VFR   VFR Marginal   IFR   IFR Intensif   IFR Très Intensif
Visi : 
Plafond : 
>= 8 km
>= 3000ft
5 à 8 km
1000 à 3000 ft
1500m à 5 km
500 à 1000 ft
800 à 1500m
200 à 500 ft
< 800m
< 200 ft
Symboles :   Orages  Brouillard  Fortes neiges  Fortes précipitations  Vent > 20 kt
SIGMETs :   Divers  Orages  Givrage  Turbulence  Onde Orograph.  Cendres Volcan.







- Altitude de l'aérodrome : 102 ft
- Code IATA : CNG
- Voir les cartes d'approche


LFBG - Cognac

DERNIER METAR :
  • 181800Z AUTO 02006KT CAVOK 19/12 Q1016 NOSIG

METARs EXPIRÉS :
  • 181730Z AUTO 02006KT CAVOK 20/12 Q1016 NOSIG
  • 181700Z AUTO 02006KT CAVOK 20/12 Q1016 NOSIG
  • 181630Z AUTO 04006KT CAVOK 21/13 Q1016 NOSIG
  • 181600Z AUTO 03009KT CAVOK 21/12 Q1015 NOSIG
  • 181530Z AUTO 04009KT CAVOK 22/13 Q1015 NOSIG

TAF TAF LFBG
Valide du 18 à 15h jusqu'au 19 à 15h UTC


181400Z 1815/1915 03010KT CAVOK
PROB30
TEMPO 1905/1908 3000 BR BKN005
Pas de NOTAMs connus pour ce terrain.



MET'MAP, la Météo Aéronautique d'un coup d'oeil ! - Copyright ORBIFLY Décembre 2007 - Disclaimer

ORBIFLY MET'MAP TEAM :

Programmation & Développement : Alexandra Zaïnal
Conception & Développement : Baudouin d'Aumeries
Co-Programmation & Développement : Marc-Olivier Méhu
Soutien technique & logistique : Manuel Goepfert

Contact : metmap@orbifly.com




SOURCES & CREDITS :

   NOAA